HBSGO LSGE-LSGG
Flight info
| Callsign | HBSGO |
|---|---|
| Flight time | 0h 31m |
| Altitude | 4500 |
| Route | MONTREUX THONON |
| Aircraft | DA40/L-SDBGRY/S |
Departure
| Time | 2026-05-07 17:47 |
|---|---|
| Airport | Ecuvillens Airfield (LSGE) |
Arrival
| Time | 2026-05-07 18:18 |
|---|---|
| Airport | Geneva International Airport (LSGG) |
| Time | Latitude | Longitude | Altitude | Speed | Heading |
|---|---|---|---|---|---|
| 2026-05-07 17:30 | 46.75471 | 7.07583 | 2338 ft | 0 kts | 4° |
| 2026-05-07 17:45 | 46.75480 | 7.07586 | 2352 ft | 4 kts | 42° |
| 2026-05-07 17:45 | 46.75481 | 7.07658 | 2337 ft | 11 kts | 94° |
| 2026-05-07 17:45 | 46.75474 | 7.07787 | 2337 ft | 14 kts | 94° |
| 2026-05-07 17:45 | 46.75466 | 7.07906 | 2336 ft | 10 kts | 95° |
| 2026-05-07 17:46 | 46.75460 | 7.08018 | 2337 ft | 11 kts | 95° |
| 2026-05-07 17:46 | 46.75467 | 7.08089 | 2342 ft | 5 kts | 18° |
| 2026-05-07 17:46 | 46.75496 | 7.08072 | 2339 ft | 7 kts | 279° |
| 2026-05-07 17:46 | 46.75515 | 7.07736 | 2336 ft | 59 kts | 274° |
| 2026-05-07 17:47 | 46.75558 | 7.07019 | 2497 ft | 71 kts | 275° |
| 2026-05-07 17:47 | 46.75601 | 7.06284 | 2699 ft | 73 kts | 275° |
| 2026-05-07 17:47 | 46.75626 | 7.05788 | 2818 ft | 75 kts | 273° |
| 2026-05-07 17:47 | 46.75399 | 7.05039 | 2946 ft | 92 kts | 222° |
| 2026-05-07 17:48 | 46.74818 | 7.04711 | 3185 ft | 91 kts | 178° |
| 2026-05-07 17:48 | 46.74291 | 7.05174 | 3334 ft | 95 kts | 112° |
| 2026-05-07 17:48 | 46.74077 | 7.06096 | 3526 ft | 96 kts | 105° |
| 2026-05-07 17:48 | 46.73673 | 7.06861 | 3732 ft | 98 kts | 147° |
| 2026-05-07 17:49 | 46.73017 | 7.07056 | 3932 ft | 98 kts | 181° |
| 2026-05-07 17:49 | 46.72333 | 7.07019 | 4117 ft | 99 kts | 182° |
| 2026-05-07 17:49 | 46.71647 | 7.06987 | 4323 ft | 98 kts | 182° |
| 2026-05-07 17:49 | 46.70960 | 7.06965 | 4496 ft | 101 kts | 182° |
| 2026-05-07 17:50 | 46.70202 | 7.06944 | 4502 ft | 115 kts | 182° |
| 2026-05-07 17:50 | 46.69392 | 7.06921 | 4504 ft | 118 kts | 183° |
| 2026-05-07 17:50 | 46.68559 | 7.06898 | 4506 ft | 121 kts | 183° |
| 2026-05-07 17:50 | 46.67712 | 7.06872 | 4507 ft | 123 kts | 183° |
| 2026-05-07 17:51 | 46.66855 | 7.06828 | 4502 ft | 124 kts | 192° |
| 2026-05-07 17:51 | 46.66117 | 7.06233 | 4506 ft | 122 kts | 221° |
| 2026-05-07 17:51 | 46.65472 | 7.05426 | 4504 ft | 122 kts | 223° |
| 2026-05-07 17:51 | 46.64834 | 7.04608 | 4503 ft | 122 kts | 223° |
| 2026-05-07 17:52 | 46.64199 | 7.03787 | 4503 ft | 122 kts | 223° |
| 2026-05-07 17:52 | 46.63573 | 7.02978 | 4501 ft | 120 kts | 223° |
| 2026-05-07 17:52 | 46.62951 | 7.02168 | 4502 ft | 120 kts | 223° |
| 2026-05-07 17:52 | 46.62326 | 7.01350 | 4503 ft | 121 kts | 223° |
| 2026-05-07 17:53 | 46.61839 | 7.00359 | 4504 ft | 121 kts | 242° |
| 2026-05-07 17:53 | 46.61439 | 6.99285 | 4504 ft | 121 kts | 243° |
| 2026-05-07 17:53 | 46.61039 | 6.98204 | 4505 ft | 122 kts | 243° |
| 2026-05-07 17:53 | 46.60646 | 6.97129 | 4505 ft | 122 kts | 243° |
| 2026-05-07 17:54 | 46.60243 | 6.96040 | 4504 ft | 123 kts | 243° |
| 2026-05-07 17:54 | 46.59839 | 6.94938 | 4506 ft | 124 kts | 243° |
| 2026-05-07 17:54 | 46.59435 | 6.93832 | 4502 ft | 124 kts | 243° |
| 2026-05-07 17:54 | 46.59030 | 6.92723 | 4500 ft | 124 kts | 243° |
| 2026-05-07 17:55 | 46.58626 | 6.91616 | 4503 ft | 124 kts | 243° |
| 2026-05-07 17:55 | 46.58137 | 6.90588 | 4498 ft | 126 kts | 223° |
| 2026-05-07 17:55 | 46.57438 | 6.89825 | 4500 ft | 126 kts | 216° |
| 2026-05-07 17:55 | 46.56708 | 6.89121 | 4499 ft | 126 kts | 214° |
| 2026-05-07 17:56 | 46.55936 | 6.88521 | 4497 ft | 126 kts | 208° |
| 2026-05-07 17:56 | 46.55156 | 6.87948 | 4495 ft | 126 kts | 208° |
| 2026-05-07 17:56 | 46.54371 | 6.87385 | 4501 ft | 126 kts | 208° |
| 2026-05-07 17:56 | 46.53584 | 6.86822 | 4497 ft | 126 kts | 208° |
| 2026-05-07 17:57 | 46.52785 | 6.86223 | 4498 ft | 132 kts | 208° |
| 2026-05-07 17:57 | 46.52238 | 6.85805 | 4495 ft | 132 kts | 208° |
| 2026-05-07 17:57 | 46.51142 | 6.85051 | 4493 ft | 131 kts | 196° |
| 2026-05-07 17:57 | 46.50258 | 6.84721 | 4492 ft | 132 kts | 193° |
| 2026-05-07 17:58 | 46.49368 | 6.84405 | 4493 ft | 133 kts | 193° |
| 2026-05-07 17:58 | 46.48463 | 6.84087 | 4491 ft | 135 kts | 193° |
| 2026-05-07 17:58 | 46.47549 | 6.83770 | 4497 ft | 136 kts | 194° |
| 2026-05-07 17:58 | 46.46638 | 6.83431 | 4482 ft | 135 kts | 202° |
| 2026-05-07 17:59 | 46.45827 | 6.82762 | 4486 ft | 134 kts | 213° |
| 2026-05-07 17:59 | 46.45103 | 6.81944 | 4484 ft | 131 kts | 231° |
| 2026-05-07 17:59 | 46.44622 | 6.80835 | 4483 ft | 130 kts | 243° |
| 2026-05-07 17:59 | 46.44172 | 6.79691 | 4479 ft | 131 kts | 243° |
| 2026-05-07 18:00 | 46.43720 | 6.78545 | 4478 ft | 131 kts | 243° |
| 2026-05-07 18:00 | 46.43390 | 6.77320 | 4478 ft | 130 kts | 256° |
| 2026-05-07 18:00 | 46.43157 | 6.76060 | 4479 ft | 130 kts | 258° |
| 2026-05-07 18:00 | 46.42921 | 6.74792 | 4474 ft | 130 kts | 257° |
| 2026-05-07 18:01 | 46.42698 | 6.73530 | 4478 ft | 129 kts | 258° |
| 2026-05-07 18:01 | 46.42460 | 6.72271 | 4475 ft | 130 kts | 258° |
| 2026-05-07 18:01 | 46.42225 | 6.71010 | 4477 ft | 130 kts | 258° |
| 2026-05-07 18:01 | 46.41986 | 6.69744 | 4477 ft | 130 kts | 258° |
| 2026-05-07 18:02 | 46.41522 | 6.67202 | 4473 ft | 131 kts | 258° |
| 2026-05-07 18:02 | 46.41283 | 6.65888 | 4332 ft | 139 kts | 258° |
| 2026-05-07 18:02 | 46.41036 | 6.64516 | 4074 ft | 142 kts | 258° |
| 2026-05-07 18:03 | 46.40791 | 6.63124 | 3822 ft | 143 kts | 258° |
| 2026-05-07 18:03 | 46.40541 | 6.61726 | 3566 ft | 143 kts | 258° |
| 2026-05-07 18:03 | 46.40293 | 6.60349 | 3330 ft | 140 kts | 258° |
| 2026-05-07 18:03 | 46.40049 | 6.59044 | 3315 ft | 127 kts | 258° |
| 2026-05-07 18:04 | 46.39821 | 6.57862 | 3315 ft | 119 kts | 258° |
| 2026-05-07 18:04 | 46.39603 | 6.56734 | 3316 ft | 114 kts | 258° |
| 2026-05-07 18:04 | 46.39383 | 6.55641 | 3310 ft | 112 kts | 258° |
| 2026-05-07 18:04 | 46.39165 | 6.54588 | 3309 ft | 109 kts | 258° |
| 2026-05-07 18:05 | 46.38952 | 6.53538 | 3316 ft | 109 kts | 258° |
| 2026-05-07 18:05 | 46.38744 | 6.52489 | 3305 ft | 107 kts | 258° |
| 2026-05-07 18:05 | 46.38540 | 6.51472 | 3304 ft | 105 kts | 258° |
| 2026-05-07 18:05 | 46.38341 | 6.50460 | 3294 ft | 103 kts | 257° |
| 2026-05-07 18:06 | 46.38166 | 6.49426 | 3299 ft | 108 kts | 258° |
| 2026-05-07 18:06 | 46.37982 | 6.48327 | 3302 ft | 117 kts | 258° |
| 2026-05-07 18:06 | 46.37779 | 6.47169 | 3298 ft | 120 kts | 258° |
| 2026-05-07 18:06 | 46.37569 | 6.45988 | 3302 ft | 122 kts | 257° |
| 2026-05-07 18:07 | 46.37353 | 6.44792 | 3301 ft | 124 kts | 255° |
| 2026-05-07 18:07 | 46.37077 | 6.43607 | 3302 ft | 125 kts | 252° |
| 2026-05-07 18:07 | 46.36799 | 6.42417 | 3314 ft | 125 kts | 253° |
| 2026-05-07 18:07 | 46.36496 | 6.41209 | 3306 ft | 129 kts | 249° |
| 2026-05-07 18:08 | 46.36129 | 6.40034 | 3307 ft | 128 kts | 248° |
| 2026-05-07 18:08 | 46.35767 | 6.38857 | 3305 ft | 128 kts | 248° |
| 2026-05-07 18:08 | 46.35404 | 6.37680 | 3308 ft | 129 kts | 248° |
| 2026-05-07 18:08 | 46.34921 | 6.36588 | 3304 ft | 130 kts | 228° |
| 2026-05-07 18:09 | 46.34286 | 6.35645 | 3307 ft | 132 kts | 225° |
| 2026-05-07 18:09 | 46.33646 | 6.34704 | 3309 ft | 130 kts | 226° |
| 2026-05-07 18:09 | 46.33003 | 6.33769 | 3310 ft | 132 kts | 226° |
| 2026-05-07 18:09 | 46.32357 | 6.32829 | 3312 ft | 132 kts | 226° |
| 2026-05-07 18:10 | 46.31705 | 6.31878 | 3306 ft | 134 kts | 226° |
| 2026-05-07 18:10 | 46.31050 | 6.30933 | 3308 ft | 132 kts | 226° |
| 2026-05-07 18:10 | 46.30391 | 6.29998 | 3305 ft | 133 kts | 226° |
| 2026-05-07 18:10 | 46.29750 | 6.29038 | 3308 ft | 133 kts | 228° |
| 2026-05-07 18:11 | 46.29115 | 6.28070 | 3306 ft | 133 kts | 228° |
| 2026-05-07 18:11 | 46.28694 | 6.27429 | 3308 ft | 134 kts | 228° |
| 2026-05-07 18:11 | 46.27847 | 6.26126 | 3308 ft | 132 kts | 227° |
| 2026-05-07 18:11 | 46.27217 | 6.25149 | 3304 ft | 133 kts | 228° |
| 2026-05-07 18:12 | 46.26588 | 6.24175 | 3305 ft | 132 kts | 227° |
| 2026-05-07 18:12 | 46.25964 | 6.23205 | 3270 ft | 133 kts | 228° |
| 2026-05-07 18:12 | 46.25317 | 6.22240 | 3202 ft | 135 kts | 225° |
| 2026-05-07 18:12 | 46.24626 | 6.21296 | 3122 ft | 138 kts | 223° |
| 2026-05-07 18:13 | 46.23931 | 6.20336 | 3043 ft | 139 kts | 224° |
| 2026-05-07 18:13 | 46.23235 | 6.19381 | 3007 ft | 136 kts | 224° |
| 2026-05-07 18:13 | 46.22542 | 6.18479 | 2995 ft | 131 kts | 221° |
| 2026-05-07 18:13 | 46.21886 | 6.17625 | 3003 ft | 126 kts | 234° |
| 2026-05-07 18:14 | 46.21653 | 6.16459 | 2996 ft | 120 kts | 280° |
| 2026-05-07 18:14 | 46.21943 | 6.15376 | 3006 ft | 115 kts | 302° |
| 2026-05-07 18:14 | 46.22353 | 6.14391 | 3007 ft | 115 kts | 305° |
| 2026-05-07 18:14 | 46.22779 | 6.13408 | 3008 ft | 116 kts | 306° |
| 2026-05-07 18:15 | 46.23203 | 6.12406 | 3003 ft | 117 kts | 306° |
| 2026-05-07 18:15 | 46.23616 | 6.11396 | 3007 ft | 117 kts | 303° |
| 2026-05-07 18:15 | 46.24021 | 6.10361 | 2970 ft | 121 kts | 303° |
| 2026-05-07 18:15 | 46.24442 | 6.09279 | 2840 ft | 126 kts | 303° |
| 2026-05-07 18:16 | 46.24752 | 6.08087 | 2697 ft | 132 kts | 275° |
| 2026-05-07 18:16 | 46.24379 | 6.06917 | 2648 ft | 134 kts | 219° |
| 2026-05-07 18:16 | 46.23625 | 6.06133 | 2536 ft | 133 kts | 216° |
| 2026-05-07 18:16 | 46.22924 | 6.05283 | 2458 ft | 130 kts | 223° |
| 2026-05-07 18:17 | 46.22141 | 6.04953 | 2416 ft | 116 kts | 150° |
| 2026-05-07 18:17 | 46.21915 | 6.05907 | 2252 ft | 107 kts | 81° |
| 2026-05-07 18:17 | 46.21972 | 6.06866 | 2058 ft | 88 kts | 78° |
| 2026-05-07 18:17 | 46.22058 | 6.07631 | 1863 ft | 69 kts | 76° |
| 2026-05-07 18:18 | 46.22152 | 6.08301 | 1731 ft | 70 kts | 61° |
| 2026-05-07 18:18 | 46.22438 | 6.08890 | 1580 ft | 71 kts | 44° |
| 2026-05-07 18:18 | 46.22769 | 6.09373 | 1436 ft | 65 kts | 44° |
| 2026-05-07 18:18 | 46.23028 | 6.09752 | 1405 ft | 45 kts | 46° |
| 2026-05-07 18:19 | 46.23332 | 6.10201 | 1526 ft | 65 kts | 43° |
| 2026-05-07 18:19 | 46.23645 | 6.10660 | 1790 ft | 63 kts | 42° |
| 2026-05-07 18:19 | 46.24000 | 6.11151 | 1904 ft | 79 kts | 41° |
| 2026-05-07 18:19 | 46.24420 | 6.11701 | 2098 ft | 83 kts | 40° |
| 2026-05-07 18:20 | 46.24850 | 6.12280 | 2296 ft | 84 kts | 41° |
| 2026-05-07 18:20 | 46.25406 | 6.12553 | 2504 ft | 86 kts | 8° |
| 2026-05-07 18:20 | 46.26044 | 6.12578 | 2644 ft | 98 kts | 348° |
| 2026-05-07 18:20 | 46.26608 | 6.11888 | 2630 ft | 114 kts | 314° |
| 2026-05-07 18:21 | 46.26807 | 6.10829 | 2629 ft | 127 kts | 248° |
| 2026-05-07 18:21 | 46.26149 | 6.09917 | 2502 ft | 134 kts | 225° |
| 2026-05-07 18:21 | 46.25472 | 6.08992 | 2451 ft | 134 kts | 224° |
| 2026-05-07 18:21 | 46.24798 | 6.08061 | 2420 ft | 133 kts | 225° |
| 2026-05-07 18:22 | 46.24149 | 6.07120 | 2438 ft | 130 kts | 227° |
| 2026-05-07 18:22 | 46.23658 | 6.06646 | 2455 ft | 129 kts | 191° |
| 2026-05-07 18:22 | 46.22801 | 6.07355 | 2113 ft | 99 kts | 115° |
| 2026-05-07 18:22 | 46.22524 | 6.08174 | 1817 ft | 81 kts | 105° |
| 2026-05-07 18:23 | 46.22524 | 6.08916 | 1597 ft | 70 kts | 62° |
| 2026-05-07 18:23 | 46.22812 | 6.09433 | 1465 ft | 65 kts | 46° |
| 2026-05-07 18:23 | 46.23099 | 6.09858 | 1403 ft | 47 kts | 45° |
| 2026-05-07 18:23 | 46.23370 | 6.10256 | 1439 ft | 67 kts | 45° |
| 2026-05-07 18:24 | 46.23686 | 6.10709 | 1692 ft | 66 kts | 43° |
| 2026-05-07 18:24 | 46.24053 | 6.11210 | 1811 ft | 80 kts | 43° |
| 2026-05-07 18:24 | 46.24476 | 6.11848 | 1955 ft | 87 kts | 44° |
| 2026-05-07 18:24 | 46.24956 | 6.12381 | 2105 ft | 92 kts | 21° |
| 2026-05-07 18:25 | 46.25585 | 6.12578 | 2316 ft | 93 kts | 11° |
| 2026-05-07 18:25 | 46.26219 | 6.12385 | 2482 ft | 102 kts | 324° |
| 2026-05-07 18:25 | 46.26688 | 6.11569 | 2603 ft | 111 kts | 307° |
| 2026-05-07 18:25 | 46.26585 | 6.10475 | 2627 ft | 125 kts | 228° |
| 2026-05-07 18:26 | 46.25949 | 6.09589 | 2581 ft | 129 kts | 225° |
| 2026-05-07 18:26 | 46.25294 | 6.08700 | 2568 ft | 130 kts | 223° |
| 2026-05-07 18:26 | 46.24626 | 6.07810 | 2545 ft | 130 kts | 223° |
| 2026-05-07 18:26 | 46.23966 | 6.06919 | 2565 ft | 129 kts | 225° |
| 2026-05-07 18:27 | 46.23318 | 6.06010 | 2541 ft | 130 kts | 225° |
| 2026-05-07 18:27 | 46.22653 | 6.05160 | 2598 ft | 125 kts | 207° |
| 2026-05-07 18:27 | 46.21968 | 6.05466 | 2582 ft | 105 kts | 106° |
| 2026-05-07 18:27 | 46.21930 | 6.06120 | 2367 ft | 96 kts | 84° |
| 2026-05-07 18:28 | 46.21969 | 6.07276 | 2055 ft | 72 kts | 79° |
| 2026-05-07 18:28 | 46.22069 | 6.07955 | 1846 ft | 68 kts | 72° |
| 2026-05-07 18:28 | 46.22268 | 6.08595 | 1662 ft | 71 kts | 53° |
| 2026-05-07 18:28 | 46.22594 | 6.09115 | 1518 ft | 68 kts | 45° |
| 2026-05-07 18:29 | 46.22913 | 6.09583 | 1423 ft | 64 kts | 46° |
| 2026-05-07 18:29 | 46.23168 | 6.09957 | 1400 ft | 55 kts | 46° |
| 2026-05-07 18:29 | 46.23496 | 6.10437 | 1553 ft | 68 kts | 44° |
| 2026-05-07 18:29 | 46.23826 | 6.10916 | 1782 ft | 71 kts | 41° |
| 2026-05-07 18:30 | 46.24207 | 6.11401 | 1948 ft | 79 kts | 38° |
| 2026-05-07 18:30 | 46.24615 | 6.12020 | 2095 ft | 86 kts | 50° |
| 2026-05-07 18:30 | 46.25099 | 6.12527 | 2245 ft | 93 kts | 12° |
| 2026-05-07 18:30 | 46.25746 | 6.12568 | 2477 ft | 93 kts | 1° |
| 2026-05-07 18:31 | 46.26321 | 6.12160 | 2627 ft | 102 kts | 317° |
| 2026-05-07 18:31 | 46.26768 | 6.11306 | 2601 ft | 111 kts | 296° |
| 2026-05-07 18:31 | 46.26572 | 6.10241 | 2544 ft | 121 kts | 224° |
| 2026-05-07 18:31 | 46.25938 | 6.09426 | 2518 ft | 121 kts | 223° |
| 2026-05-07 18:32 | 46.25312 | 6.08623 | 2517 ft | 119 kts | 223° |
| 2026-05-07 18:32 | 46.25034 | 6.07598 | 2551 ft | 108 kts | 284° |
| 2026-05-07 18:32 | 46.25517 | 6.06921 | 2518 ft | 101 kts | 356° |
| 2026-05-07 18:32 | 46.26063 | 6.07412 | 2518 ft | 101 kts | 67° |
| 2026-05-07 18:33 | 46.26046 | 6.08082 | 2524 ft | 106 kts | 109° |
| 2026-05-07 18:33 | 46.25460 | 6.08683 | 2522 ft | 115 kts | 171° |
| 2026-05-07 18:33 | 46.24768 | 6.08211 | 2510 ft | 115 kts | 240° |
| 2026-05-07 18:33 | 46.24781 | 6.07148 | 2468 ft | 108 kts | 308° |
| 2026-05-07 18:34 | 46.25357 | 6.06592 | 2507 ft | 98 kts | 349° |
| 2026-05-07 18:34 | 46.25955 | 6.06904 | 2493 ft | 99 kts | 53° |
| 2026-05-07 18:34 | 46.25933 | 6.07878 | 2488 ft | 108 kts | 122° |
| 2026-05-07 18:34 | 46.25245 | 6.08284 | 2483 ft | 115 kts | 191° |
| 2026-05-07 18:35 | 46.24789 | 6.07451 | 2442 ft | 113 kts | 270° |
| 2026-05-07 18:35 | 46.25101 | 6.06505 | 2473 ft | 101 kts | 327° |
| 2026-05-07 18:35 | 46.25746 | 6.06401 | 2467 ft | 96 kts | 24° |
| 2026-05-07 18:35 | 46.26171 | 6.07094 | 2507 ft | 96 kts | 71° |
| 2026-05-07 18:36 | 46.25950 | 6.07989 | 2518 ft | 107 kts | 142° |
| 2026-05-07 18:36 | 46.25228 | 6.07975 | 2564 ft | 111 kts | 214° |
| 2026-05-07 18:36 | 46.24793 | 6.07092 | 2562 ft | 109 kts | 254° |
| 2026-05-07 18:36 | 46.24957 | 6.06126 | 2589 ft | 101 kts | 323° |
| 2026-05-07 18:37 | 46.25609 | 6.05940 | 2577 ft | 99 kts | 22° |
| 2026-05-07 18:37 | 46.25978 | 6.06708 | 2586 ft | 101 kts | 82° |
| 2026-05-07 18:37 | 46.25675 | 6.07638 | 2554 ft | 112 kts | 142° |
| 2026-05-07 18:37 | 46.24924 | 6.07645 | 2523 ft | 117 kts | 213° |
| 2026-05-07 18:38 | 46.24592 | 6.06645 | 2509 ft | 112 kts | 279° |
| 2026-05-07 18:38 | 46.24988 | 6.05786 | 2588 ft | 99 kts | 335° |
| 2026-05-07 18:38 | 46.25654 | 6.05736 | 2564 ft | 101 kts | 24° |
| 2026-05-07 18:38 | 46.26099 | 6.06441 | 2599 ft | 99 kts | 70° |
| 2026-05-07 18:39 | 46.25942 | 6.07426 | 2607 ft | 106 kts | 131° |
| 2026-05-07 18:39 | 46.25214 | 6.07591 | 2552 ft | 117 kts | 203° |
| 2026-05-07 18:39 | 46.24540 | 6.06920 | 2501 ft | 118 kts | 217° |
| 2026-05-07 18:39 | 46.23892 | 6.06199 | 2515 ft | 116 kts | 219° |
| 2026-05-07 18:40 | 46.23248 | 6.05491 | 2466 ft | 118 kts | 217° |
| 2026-05-07 18:40 | 46.22570 | 6.04881 | 2472 ft | 111 kts | 193° |
| 2026-05-07 18:40 | 46.21940 | 6.05230 | 2399 ft | 99 kts | 114° |
| 2026-05-07 18:40 | 46.21915 | 6.06121 | 2212 ft | 80 kts | 78° |
| 2026-05-07 18:41 | 46.21982 | 6.06889 | 2025 ft | 76 kts | 78° |
| 2026-05-07 18:41 | 46.22089 | 6.07611 | 1855 ft | 73 kts | 70° |
| 2026-05-07 18:41 | 46.22243 | 6.08301 | 1681 ft | 70 kts | 69° |
| 2026-05-07 18:41 | 46.22468 | 6.08907 | 1553 ft | 69 kts | 52° |
| 2026-05-07 18:42 | 46.22801 | 6.09422 | 1424 ft | 66 kts | 45° |
| 2026-05-07 18:42 | 46.23038 | 6.09767 | 1405 ft | 29 kts | 43° |
| 2026-05-07 18:42 | 46.23159 | 6.09947 | 1400 ft | 24 kts | 46° |
| 2026-05-07 18:42 | 46.23272 | 6.10106 | 1394 ft | 18 kts | 27° |
| 2026-05-07 18:43 | 46.23335 | 6.10084 | 1395 ft | 8 kts | 316° |
| 2026-05-07 18:43 | 46.23376 | 6.10025 | 1395 ft | 6 kts | 317° |
| 2026-05-07 18:43 | 46.23409 | 6.09979 | 1396 ft | 8 kts | 314° |
| 2026-05-07 18:43 | 46.23402 | 6.09930 | 1397 ft | 9 kts | 225° |
| 2026-05-07 18:44 | 46.23356 | 6.09861 | 1396 ft | 7 kts | 226° |
| 2026-05-07 18:44 | 46.23318 | 6.09802 | 1394 ft | 6 kts | 243° |
| 2026-05-07 18:44 | 46.23329 | 6.09766 | 1394 ft | 6 kts | 317° |
| 2026-05-07 18:44 | 46.23364 | 6.09767 | 1394 ft | 6 kts | 9° |
| 2026-05-07 18:45 | 46.23390 | 6.09745 | 1395 ft | 4 kts | 327° |
| 2026-05-07 18:45 | 46.23404 | 6.09754 | 1394 ft | 0 kts | 49° |